Time;durP1;ratioP1;P1;durP2;ratioP2;P2;SDS_P1;SDS_P2;PMS_P1;PMS_P2;Temp;Humidity;BMP_temperature;BMP_pressure;BME280_temperature;BME280_humidity;BME280_pressure;Samples;Min_cycle;Max_cycle;Signal;HPM_P1;HPM_P2
2022/04/25 00:01:03;;;;;;;10.05;6.38;;;;;;;;;;5052046;28;20044;-73
2022/04/25 00:03:29;;;;;;;9.60;7.32;;;;;;;;;;5051863;28;20078;-73
2022/04/25 00:05:54;;;;;;;11.02;7.22;;;;;;;;;;5052010;28;20466;-73
2022/04/25 00:08:19;;;;;;;7.78;6.55;;;;;;;;;;5051914;28;20070;-73
2022/04/25 00:10:46;;;;;;;10.45;7.38;;;;;;;;;;5050687;28;20082;-73
2022/04/25 00:13:13;;;;;;;7.30;6.30;;;;;;;;;;5051536;28;20025;-72
2022/04/25 00:15:38;;;;;;;7.35;6.45;;;;;;;;;;5051833;28;20032;-72
2022/04/25 00:18:04;;;;;;;8.73;6.35;;;;;;;;;;5051328;28;20017;-73
2022/04/25 00:20:29;;;;;;;8.38;6.68;;;;;;;;;;5051540;28;20024;-73
2022/04/25 00:22:55;;;;;;;8.98;6.93;;;;;;;;;;5051511;28;20021;-73
2022/04/25 00:25:20;;;;;;;8.10;7.30;;;;;;;;;;5051441;28;20037;-73
2022/04/25 00:27:45;;;;;;;7.63;6.53;;;;;;;;;;5051191;28;20029;-73
2022/04/25 00:30:11;;;;;;;7.30;6.50;;;;;;;;;;5051196;28;20029;-73
2022/04/25 00:32:36;;;;;;;7.80;6.95;;;;;;;;;;5051097;28;20036;-73
2022/04/25 00:35:03;;;;;;;8.30;7.07;;;;;;;;;;5051302;28;20016;-73
2022/04/25 00:37:29;;;;;;;9.50;7.20;;;;;;;;;;5051122;28;20021;-73
2022/04/25 00:39:54;;;;;;;8.57;7.25;;;;;;;;;;5050881;28;20455;-72
2022/04/25 00:42:20;;;;;;;9.70;7.13;;;;;;;;;;5051037;28;20013;-73
2022/04/25 00:44:45;;;;;;;8.77;7.40;;;;;;;;;;5051240;28;20052;-73
2022/04/25 00:47:11;;;;;;;10.30;7.93;;;;;;;;;;5050882;28;20111;-73
2022/04/25 00:49:37;;;;;;;8.38;7.32;;;;;;;;;;5050809;28;20028;-73
2022/04/25 00:52:03;;;;;;;7.93;6.70;;;;;;;;;;5050771;28;20029;-73
2022/04/25 00:54:29;;;;;;;8.10;6.65;;;;;;;;;;5050777;28;20025;-73
2022/04/25 00:56:54;;;;;;;8.35;6.90;;;;;;;;;;5050592;28;20025;-73
2022/04/25 00:59:21;;;;;;;8.15;7.22;;;;;;;;;;5050649;28;20029;-73
2022/04/25 01:01:47;;;;;;;10.40;7.05;;;;;;;;;;5050613;28;20471;-72
2022/04/25 01:04:13;;;;;;;13.32;8.43;;;;;;;;;;5050738;28;20024;-73
2022/04/25 01:06:39;;;;;;;24.13;12.13;;;;;;;;;;5050507;28;20474;-72
2022/04/25 01:09:05;;;;;;;32.97;16.52;;;;;;;;;;5050452;28;20039;-73
2022/04/25 01:11:30;;;;;;;14.32;9.13;;;;;;;;;;5050382;28;20036;-73
2022/04/25 01:13:56;;;;;;;7.97;7.18;;;;;;;;;;5050717;28;20466;-73
2022/04/25 01:16:21;;;;;;;10.05;7.50;;;;;;;;;;5049112;28;20021;-73
2022/04/25 01:18:47;;;;;;;10.00;8.00;;;;;;;;;;5050112;28;20020;-73
2022/04/25 01:21:14;;;;;;;9.35;7.38;;;;;;;;;;5048810;28;20032;-73
2022/04/25 01:29:08;;;;;;;8.75;7.53;;;;;;;;;;5050431;28;20430;-73
2022/04/25 01:31:34;;;;;;;9.10;7.72;;;;;;;;;;5050171;28;20018;-73
2022/04/25 01:33:59;;;;;;;10.02;7.82;;;;;;;;;;5050203;28;20035;-73
2022/04/25 01:36:25;;;;;;;9.98;7.90;;;;;;;;;;5050125;28;20151;-73
2022/04/25 01:38:54;;;;;;;9.82;8.13;;;;;;;;;;5050037;28;20029;-73
2022/04/25 01:41:20;;;;;;;9.30;7.97;;;;;;;;;;5050542;28;20078;-73
2022/04/25 01:43:46;;;;;;;15.07;8.40;;;;;;;;;;5050236;28;20027;-73
2022/04/25 01:46:12;;;;;;;12.40;9.00;;;;;;;;;;5049861;28;20034;-73
2022/04/25 01:48:37;;;;;;;11.00;8.35;;;;;;;;;;5049904;28;20031;-73
2022/04/25 01:51:03;;;;;;;15.88;9.80;;;;;;;;;;5049912;28;20041;-73
2022/04/25 01:53:29;;;;;;;12.07;8.10;;;;;;;;;;5049924;28;20032;-72
2022/04/25 01:55:55;;;;;;;8.68;7.47;;;;;;;;;;5049916;28;20052;-72
2022/04/25 01:58:20;;;;;;;11.20;8.20;;;;;;;;;;5049742;28;20509;-72
2022/04/25 02:00:46;;;;;;;9.02;7.75;;;;;;;;;;5049895;28;20440;-73
2022/04/25 02:03:12;;;;;;;9.25;7.85;;;;;;;;;;5050317;28;20060;-73
2022/04/25 02:05:37;;;;;;;9.82;8.30;;;;;;;;;;5049772;28;20032;-73
2022/04/25 02:08:03;;;;;;;10.32;8.27;;;;;;;;;;5049546;28;20029;-73
2022/04/25 02:10:28;;;;;;;10.20;7.97;;;;;;;;;;5049858;28;20029;-73
2022/04/25 02:12:54;;;;;;;9.65;8.50;;;;;;;;;;5049745;28;20028;-73
2022/04/25 02:15:20;;;;;;;16.48;9.65;;;;;;;;;;5049779;28;20025;-73
2022/04/25 02:17:45;;;;;;;13.90;9.18;;;;;;;;;;5049635;28;20070;-73
2022/04/25 02:20:12;;;;;;;13.68;9.32;;;;;;;;;;5048163;28;20497;-73
2022/04/25 02:22:37;;;;;;;11.63;8.75;;;;;;;;;;5049716;28;20571;-73
2022/04/25 02:25:03;;;;;;;9.38;7.97;;;;;;;;;;5049772;28;20100;-73
2022/04/25 02:27:28;;;;;;;11.90;8.63;;;;;;;;;;5049482;28;20032;-73
2022/04/25 02:29:58;;;;;;;12.35;8.93;;;;;;;;;;5049366;28;20032;-73
2022/04/25 02:32:23;;;;;;;10.30;8.48;;;;;;;;;;5049809;28;20116;-73
2022/04/25 02:34:53;;;;;;;11.18;8.65;;;;;;;;;;5053530;28;20106;-73
2022/04/25 02:37:19;;;;;;;11.65;8.63;;;;;;;;;;5053737;28;20119;-73
2022/04/25 02:39:44;;;;;;;9.88;8.07;;;;;;;;;;5053441;28;20483;-73
2022/04/25 02:42:09;;;;;;;11.13;8.40;;;;;;;;;;5053448;28;20044;-73
2022/04/25 02:44:35;;;;;;;10.88;7.82;;;;;;;;;;5053386;28;20532;-73
2022/04/25 02:47:00;;;;;;;9.93;8.18;;;;;;;;;;5053673;28;20067;-73
2022/04/25 02:49:25;;;;;;;9.95;8.20;;;;;;;;;;5052960;28;20051;-73
2022/04/25 02:51:50;;;;;;;12.30;9.02;;;;;;;;;;5053256;28;20463;-73
2022/04/25 02:54:16;;;;;;;11.30;8.43;;;;;;;;;;5053090;28;20094;-73
2022/04/25 02:56:41;;;;;;;10.77;8.80;;;;;;;;;;5053102;28;20060;-72
2022/04/25 02:59:07;;;;;;;12.30;9.00;;;;;;;;;;5052832;28;20078;-72
2022/04/25 03:01:32;;;;;;;9.57;8.23;;;;;;;;;;5051778;28;20025;-73
2022/04/25 03:03:58;;;;;;;10.55;8.43;;;;;;;;;;5052877;28;20087;-72
2022/04/25 03:06:23;;;;;;;10.88;8.68;;;;;;;;;;5052920;28;20113;-72
2022/04/25 03:08:49;;;;;;;11.20;8.77;;;;;;;;;;5052918;28;20025;-73
2022/04/25 03:11:14;;;;;;;10.60;8.23;;;;;;;;;;5052886;28;20017;-73
2022/04/25 03:13:39;;;;;;;14.23;8.23;;;;;;;;;;5052668;28;20021;-73
2022/04/25 03:16:06;;;;;;;11.43;8.48;;;;;;;;;;5051599;28;20028;-72
2022/04/25 03:18:32;;;;;;;12.95;9.07;;;;;;;;;;5052386;28;20029;-73
2022/04/25 03:20:58;;;;;;;12.40;8.93;;;;;;;;;;5052737;28;20036;-73
2022/04/25 03:23:24;;;;;;;12.63;8.80;;;;;;;;;;5052599;28;20025;-73
2022/04/25 03:25:50;;;;;;;10.45;8.13;;;;;;;;;;5052559;28;20025;-72
2022/04/25 03:28:16;;;;;;;9.32;8.15;;;;;;;;;;5052353;28;20031;-72
2022/04/25 03:30:42;;;;;;;10.45;8.30;;;;;;;;;;5052589;28;20071;-72
2022/04/25 03:33:11;;;;;;;10.90;8.50;;;;;;;;;;5052543;28;20126;-72
2022/04/25 03:35:37;;;;;;;9.65;8.10;;;;;;;;;;5052674;28;20044;-73
2022/04/25 03:38:02;;;;;;;12.25;8.43;;;;;;;;;;5052260;28;20029;-73
2022/04/25 03:40:28;;;;;;;11.50;8.52;;;;;;;;;;5052385;28;20025;-73
2022/04/25 03:42:56;;;;;;;11.20;8.52;;;;;;;;;;5052317;28;20025;-72
2022/04/25 03:45:22;;;;;;;10.45;8.05;;;;;;;;;;5051880;28;20021;-72
2022/04/25 03:47:47;;;;;;;9.70;8.45;;;;;;;;;;5051880;28;20059;-72
2022/04/25 03:50:15;;;;;;;12.57;9.25;;;;;;;;;;5052006;28;20103;-73
2022/04/25 03:52:43;;;;;;;10.43;8.30;;;;;;;;;;5052115;28;20071;-72
2022/04/25 03:57:55;;;;;;;12.75;9.07;;;;;;;;;;5051762;28;20118;-73
2022/04/25 04:00:21;;;;;;;11.23;8.50;;;;;;;;;;5050522;28;20136;-74
2022/04/25 04:02:46;;;;;;;13.35;9.40;;;;;;;;;;5052121;28;20025;-73
2022/04/25 04:05:13;;;;;;;14.10;9.15;;;;;;;;;;5052113;28;20431;-73
2022/04/25 04:07:39;;;;;;;13.43;8.60;;;;;;;;;;5052067;28;20145;-73
2022/04/25 04:10:05;;;;;;;11.07;8.77;;;;;;;;;;5051524;28;20029;-73
2022/04/25 04:12:31;;;;;;;10.20;8.48;;;;;;;;;;5051602;28;20048;-73
2022/04/25 04:14:58;;;;;;;12.05;9.18;;;;;;;;;;5051638;28;20028;-72
2022/04/25 04:17:24;;;;;;;14.35;10.20;;;;;;;;;;5051621;28;20029;-73
2022/04/25 04:19:50;;;;;;;12.75;9.77;;;;;;;;;;5051412;28;20039;-73
2022/04/25 04:22:15;;;;;;;14.48;10.07;;;;;;;;;;5051662;28;20070;-73
2022/04/25 04:24:41;;;;;;;11.65;9.20;;;;;;;;;;5051769;28;20036;-73
2022/04/25 04:27:06;;;;;;;13.60;10.27;;;;;;;;;;5051394;28;20083;-73
2022/04/25 04:29:33;;;;;;;11.43;9.18;;;;;;;;;;5051287;28;20656;-74
2022/04/25 04:32:01;;;;;;;11.43;9.40;;;;;;;;;;5051450;28;20025;-74
2022/04/25 04:34:26;;;;;;;12.13;9.15;;;;;;;;;;5051268;28;20036;-73
2022/04/25 04:36:52;;;;;;;14.05;10.18;;;;;;;;;;5050114;28;20597;-73
2022/04/25 04:39:18;;;;;;;12.00;9.55;;;;;;;;;;5050944;28;20386;-73
2022/04/25 04:41:44;;;;;;;11.73;9.18;;;;;;;;;;5050996;28;20029;-74
2022/04/25 04:44:09;;;;;;;11.90;9.63;;;;;;;;;;5051057;28;20032;-73
2022/04/25 04:46:34;;;;;;;15.52;9.50;;;;;;;;;;5050995;28;20120;-74
2022/04/25 04:49:00;;;;;;;11.75;9.73;;;;;;;;;;5050749;28;20028;-73
2022/04/25 04:51:25;;;;;;;14.77;11.38;;;;;;;;;;5050892;28;20493;-74
2022/04/25 04:53:50;;;;;;;16.75;13.00;;;;;;;;;;5050956;28;20017;-73
2022/04/25 04:56:16;;;;;;;25.17;18.63;;;;;;;;;;5050024;28;20059;-73
2022/04/25 04:58:41;;;;;;;15.63;12.50;;;;;;;;;;5050577;28;20029;-73
2022/04/25 05:01:07;;;;;;;14.65;11.65;;;;;;;;;;5066299;28;20029;-73
2022/04/25 05:03:34;;;;;;;13.52;10.98;;;;;;;;;;5050843;28;20029;-74
2022/04/25 05:05:59;;;;;;;11.82;9.77;;;;;;;;;;5050511;28;20029;-74
2022/04/25 05:08:24;;;;;;;11.70;9.73;;;;;;;;;;5050456;28;20028;-73
2022/04/25 05:10:49;;;;;;;15.43;9.68;;;;;;;;;;5050933;28;20067;-73
2022/04/25 05:13:15;;;;;;;13.73;10.35;;;;;;;;;;5050385;28;20047;-74
2022/04/25 05:15:42;;;;;;;12.70;10.60;;;;;;;;;;5050560;28;20025;-73
2022/04/25 05:18:08;;;;;;;12.27;9.93;;;;;;;;;;5050228;28;20112;-74
2022/04/25 05:20:33;;;;;;;12.15;9.85;;;;;;;;;;5050787;28;20100;-74
2022/04/25 05:22:58;;;;;;;13.43;10.27;;;;;;;;;;5051002;28;20089;-73
2022/04/25 05:25:25;;;;;;;15.20;9.60;;;;;;;;;;5050465;28;20017;-73
2022/04/25 05:27:53;;;;;;;20.00;9.93;;;;;;;;;;5050394;28;20593;-74
2022/04/25 05:30:20;;;;;;;15.25;9.60;;;;;;;;;;5050433;28;20024;-73
2022/04/25 05:32:46;;;;;;;12.88;10.30;;;;;;;;;;5050466;28;20025;-73
2022/04/25 05:35:14;;;;;;;16.20;10.57;;;;;;;;;;5050187;28;20108;-73
2022/04/25 05:37:39;;;;;;;13.27;9.57;;;;;;;;;;5050106;28;20025;-73
2022/04/25 05:40:06;;;;;;;11.93;9.25;;;;;;;;;;5049553;28;20017;-74
2022/04/25 05:42:31;;;;;;;18.17;13.48;;;;;;;;;;5049926;28;20078;-74
2022/04/25 05:44:59;;;;;;;14.00;9.75;;;;;;;;;;5050121;28;20020;-73
2022/04/25 05:47:24;;;;;;;14.07;10.48;;;;;;;;;;5049851;28;20390;-73
2022/04/25 05:52:34;;;;;;;13.57;10.40;;;;;;;;;;5049984;28;20028;-74
2022/04/25 05:54:59;;;;;;;13.75;10.65;;;;;;;;;;5049778;28;20029;-73
2022/04/25 05:57:25;;;;;;;12.57;10.45;;;;;;;;;;5049823;28;20029;-73
2022/04/25 05:59:50;;;;;;;14.32;10.80;;;;;;;;;;5049721;28;20029;-74
2022/04/25 06:02:17;;;;;;;16.38;10.30;;;;;;;;;;5048117;28;20033;-73
2022/04/25 06:04:43;;;;;;;13.18;9.77;;;;;;;;;;5035034;28;20031;-74
2022/04/25 06:07:08;;;;;;;12.95;9.85;;;;;;;;;;5049786;28;20024;-73
2022/04/25 06:09:34;;;;;;;15.00;10.30;;;;;;;;;;5053508;28;20020;-73
2022/04/25 06:12:00;;;;;;;10.52;8.95;;;;;;;;;;5053579;28;20521;-73
2022/04/25 06:14:26;;;;;;;14.43;9.88;;;;;;;;;;5050263;28;20037;-73
2022/04/25 06:16:51;;;;;;;13.00;9.75;;;;;;;;;;5049299;28;20071;-73
2022/04/25 06:19:17;;;;;;;11.38;9.55;;;;;;;;;;5044140;28;20031;-73
2022/04/25 06:21:42;;;;;;;12.40;9.23;;;;;;;;;;5048613;28;20056;-73
2022/04/25 06:24:08;;;;;;;12.52;9.73;;;;;;;;;;5049551;28;20033;-74
2022/04/25 06:26:34;;;;;;;14.05;11.75;;;;;;;;;;5049521;28;20052;-73
2022/04/25 06:28:59;;;;;;;13.30;10.10;;;;;;;;;;5049420;28;20386;-73
2022/04/25 06:31:25;;;;;;;13.25;10.57;;;;;;;;;;5048464;28;20108;-73
2022/04/25 06:33:50;;;;;;;12.95;9.88;;;;;;;;;;5049829;28;20028;-73
2022/04/25 06:36:16;;;;;;;12.60;9.93;;;;;;;;;;5047601;28;20478;-73
2022/04/25 06:38:41;;;;;;;13.68;10.65;;;;;;;;;;5049703;28;20458;-73
2022/04/25 06:41:07;;;;;;;13.57;10.35;;;;;;;;;;5048485;28;20028;-74
2022/04/25 06:43:32;;;;;;;11.48;10.02;;;;;;;;;;5047948;28;20059;-74
2022/04/25 06:45:58;;;;;;;12.30;9.88;;;;;;;;;;5049338;28;20055;-73
2022/04/25 06:48:23;;;;;;;13.98;10.45;;;;;;;;;;5046037;28;20025;-72
2022/04/25 06:50:49;;;;;;;12.00;9.48;;;;;;;;;;5049112;28;20462;-73
2022/04/25 06:53:14;;;;;;;11.88;9.95;;;;;;;;;;5047386;28;20036;-72
2022/04/25 06:55:40;;;;;;;11.15;9.35;;;;;;;;;;5043013;28;20025;-73
2022/04/25 06:58:06;;;;;;;12.10;9.75;;;;;;;;;;5045713;28;20100;-73
2022/04/25 07:00:32;;;;;;;12.52;9.98;;;;;;;;;;5042305;28;20037;-73
2022/04/25 07:02:57;;;;;;;13.07;10.13;;;;;;;;;;5045494;28;20395;-75
2022/04/25 07:05:24;;;;;;;13.05;9.48;;;;;;;;;;5041674;28;20091;-75
2022/04/25 07:07:50;;;;;;;14.80;10.65;;;;;;;;;;5045074;28;20021;-75
2022/04/25 07:10:15;;;;;;;14.88;10.15;;;;;;;;;;5041893;28;20043;-73
2022/04/25 07:12:41;;;;;;;12.23;10.38;;;;;;;;;;5043544;28;20048;-73
2022/04/25 07:15:08;;;;;;;13.75;11.30;;;;;;;;;;5041012;28;20155;-74
2022/04/25 07:17:33;;;;;;;17.80;12.25;;;;;;;;;;5044949;28;20013;-75
2022/04/25 07:19:58;;;;;;;24.38;14.20;;;;;;;;;;5044579;28;20433;-76
2022/04/25 07:30:36;;;;;;;26.13;17.00;;;;;;;;;;5045476;28;20087;-73
2022/04/25 07:33:01;;;;;;;24.73;17.83;;;;;;;;;;5045577;28;20025;-73
2022/04/25 07:35:27;;;;;;;28.42;18.58;;;;;;;;;;5044035;28;20020;-73
2022/04/25 07:37:52;;;;;;;30.98;20.55;;;;;;;;;;5044254;28;20113;-72
2022/04/25 07:40:18;;;;;;;30.55;20.38;;;;;;;;;;5043421;28;20525;-72
2022/04/25 07:42:43;;;;;;;29.45;18.38;;;;;;;;;;5043626;28;20021;-74
2022/04/25 07:45:09;;;;;;;27.88;17.85;;;;;;;;;;5044873;28;20030;-75
2022/04/25 07:47:35;;;;;;;27.77;16.92;;;;;;;;;;5042951;28;20104;-74
2022/04/25 07:50:00;;;;;;;23.85;16.65;;;;;;;;;;5042213;28;20036;-76
2022/04/25 07:52:26;;;;;;;21.80;16.33;;;;;;;;;;5044357;28;20032;-75
2022/04/25 07:54:52;;;;;;;27.77;18.50;;;;;;;;;;5044219;28;20047;-74
2022/04/25 07:57:18;;;;;;;27.10;18.05;;;;;;;;;;5044358;28;20029;-76
2022/04/25 07:59:44;;;;;;;30.63;18.98;;;;;;;;;;5042593;28;20021;-75
2022/04/25 08:02:09;;;;;;;26.48;18.30;;;;;;;;;;5043314;28;20039;-78
2022/04/25 08:04:34;;;;;;;22.25;16.15;;;;;;;;;;5045129;28;20024;-76
2022/04/25 08:07:00;;;;;;;17.80;14.68;;;;;;;;;;5043615;28;20025;-76
2022/04/25 08:09:25;;;;;;;12.02;10.77;;;;;;;;;;5042885;28;20021;-77
2022/04/25 08:17:56;;;;;;;12.15;9.52;;;;;;;;;;5043257;28;20471;-78
2022/04/25 08:19:45;;;;;;;8.20;7.40;;;;;;;;;;5045046;28;20028;-78
2022/04/25 08:22:10;;;;;;;7.83;7.03;;;;;;;;;;5044221;28;20269;-77
2022/04/25 08:24:36;;;;;;;7.00;6.40;;;;;;;;;;5048874;28;20021;-77
2022/04/25 08:27:02;;;;;;;7.57;6.72;;;;;;;;;;5051363;28;20410;-77
2022/04/25 08:29:27;;;;;;;6.97;6.28;;;;;;;;;;5050966;28;20021;-77
2022/04/25 08:31:52;;;;;;;9.40;6.40;;;;;;;;;;5051515;28;20055;-76
2022/04/25 08:34:17;;;;;;;7.03;6.33;;;;;;;;;;5050015;28;20063;-76
2022/04/25 08:36:43;;;;;;;9.40;5.80;;;;;;;;;;5049283;28;20273;-76
2022/04/25 08:39:09;;;;;;;6.00;5.50;;;;;;;;;;5046481;28;20337;-77
2022/04/25 08:41:44;;;;;;;7.38;6.30;;;;;;;;;;5050739;28;20124;-76
2022/04/25 08:44:10;;;;;;;5.38;4.93;;;;;;;;;;5051010;28;20017;-76
2022/04/25 08:46:35;;;;;;;6.80;6.20;;;;;;;;;;5069229;22;20049;-73
2022/04/25 08:49:03;;;;;;;6.78;6.13;;;;;;;;;;5045653;28;20037;-72
2022/04/25 08:51:29;;;;;;;6.05;5.55;;;;;;;;;;5044916;28;20024;-71
2022/04/25 08:53:55;;;;;;;5.60;5.15;;;;;;;;;;5047162;28;20024;-70
2022/04/25 08:56:23;;;;;;;7.32;6.70;;;;;;;;;;5045704;28;20024;-72
2022/04/25 08:58:49;;;;;;;5.97;5.47;;;;;;;;;;5043922;28;20466;-71
2022/04/25 09:01:15;;;;;;;6.50;5.60;;;;;;;;;;5046480;28;20029;-71
2022/04/25 09:03:40;;;;;;;5.75;5.03;;;;;;;;;;5046752;28;20043;-71
2022/04/25 09:06:08;;;;;;;5.27;4.83;;;;;;;;;;5044634;28;20478;-72
2022/04/25 09:08:34;;;;;;;6.45;5.85;;;;;;;;;;5044876;28;20021;-72
2022/04/25 09:12:09;;;;;;;5.85;5.35;;;;;;;;;;5046890;28;20040;-74
2022/04/25 09:13:45;;;;;;;5.63;5.13;;;;;;;;;;5046971;28;20044;-71
2022/04/25 09:16:17;;;;;;;5.72;5.22;;;;;;;;;;5045086;28;20025;-71
2022/04/25 09:18:43;;;;;;;4.65;4.32;;;;;;;;;;5042926;28;20115;-72
2022/04/25 09:21:13;;;;;;;4.90;4.43;;;;;;;;;;5046238;28;20174;-72
2022/04/25 09:23:38;;;;;;;4.93;4.53;;;;;;;;;;5046586;28;20025;-71
2022/04/25 09:26:27;;;;;;;4.47;4.07;;;;;;;;;;5045659;28;20078;-72
2022/04/25 09:28:55;;;;;;;4.40;4.10;;;;;;;;;;5039451;28;20069;-72
2022/04/25 09:31:25;;;;;;;5.25;4.47;;;;;;;;;;5045281;28;20033;-72
2022/04/25 09:33:51;;;;;;;4.72;4.32;;;;;;;;;;5045501;28;20462;-72
2022/04/25 09:36:17;;;;;;;4.82;4.43;;;;;;;;;;5044594;28;20470;-71
2022/04/25 09:38:42;;;;;;;4.30;3.90;;;;;;;;;;5044190;28;20028;-73
2022/04/25 09:41:08;;;;;;;5.10;4.60;;;;;;;;;;5045694;28;20033;-71
2022/04/25 09:43:35;;;;;;;4.07;3.75;;;;;;;;;;5046044;28;20005;-72
2022/04/25 09:46:01;;;;;;;4.53;4.03;;;;;;;;;;5046269;28;20036;-74
2022/04/25 09:48:26;;;;;;;4.17;3.77;;;;;;;;;;5045160;28;20028;-74
2022/04/25 09:51:17;;;;;;;4.20;3.80;;;;;;;;;;5045051;28;20024;-72
2022/04/25 09:53:42;;;;;;;;;;;;;;;;;;5043907;28;20290;-72
2022/04/25 09:56:12;;;;;;;4.63;4.22;;;;;;;;;;5045066;28;19924;-71
2022/04/25 09:58:38;;;;;;;5.70;5.20;;;;;;;;;;5044628;28;20733;-73
2022/04/25 10:01:08;;;;;;;6.20;4.60;;;;;;;;;;5042748;28;20024;-70
2022/04/25 10:03:35;;;;;;;4.05;3.70;;;;;;;;;;5047548;28;20309;-72
2022/04/25 10:06:02;;;;;;;4.07;3.67;;;;;;;;;;5048509;28;20040;-71
2022/04/25 10:08:27;;;;;;;4.90;4.50;;;;;;;;;;5045764;28;20286;-70
2022/04/25 10:10:53;;;;;;;4.28;3.63;;;;;;;;;;5044815;28;20119;-71
2022/04/25 10:13:19;;;;;;;4.00;3.70;;;;;;;;;;5045222;28;20141;-71
2022/04/25 10:15:44;;;;;;;3.60;3.30;;;;;;;;;;5045237;28;20478;-70
2022/04/25 10:18:10;;;;;;;3.90;3.60;;;;;;;;;;5044330;28;20379;-73
2022/04/25 10:20:37;;;;;;;3.75;3.38;;;;;;;;;;5045539;28;20039;-73
2022/04/25 10:23:06;;;;;;;3.80;3.40;;;;;;;;;;5046255;28;20250;-70
2022/04/25 10:25:32;;;;;;;3.85;3.55;;;;;;;;;;5044376;28;20053;-71
2022/04/25 10:28:02;;;;;;;4.00;3.70;;;;;;;;;;5044456;28;20449;-73
2022/04/25 10:30:33;;;;;;;3.42;3.13;;;;;;;;;;5044751;28;20090;-71
2022/04/25 10:32:58;;;;;;;;;;;;;;;;;;5045827;28;20024;-71
2022/04/25 10:35:31;;;;;;;4.70;3.97;;;;;;;;;;5043938;28;20007;-71
2022/04/25 10:37:56;;;;;;;4.00;3.60;;;;;;;;;;5044276;28;20436;-71
2022/04/25 10:44:10;;;;;;;4.20;3.87;;;;;;;;;;5046114;28;20086;-70
2022/04/25 10:46:13;;;;;;;3.88;3.58;;;;;;;;;;5043592;28;20032;-71
2022/04/25 10:48:58;;;;;;;3.70;3.28;;;;;;;;;;5044542;28;20049;-70
2022/04/25 10:51:36;;;;;;;3.50;3.20;;;;;;;;;;5043450;28;20032;-70
2022/04/25 10:54:02;;;;;;;3.70;3.40;;;;;;;;;;5046129;28;20021;-71
2022/04/25 10:56:28;;;;;;;6.10;3.40;;;;;;;;;;5049101;28;20040;-71
2022/04/25 10:59:12;;;;;;;3.95;3.65;;;;;;;;;;5048772;28;20070;-71
2022/04/25 11:01:43;;;;;;;3.95;3.65;;;;;;;;;;5048831;28;20471;-70
2022/04/25 11:04:13;;;;;;;4.00;3.60;;;;;;;;;;5048882;28;20359;-70
2022/04/25 11:06:38;;;;;;;3.90;3.38;;;;;;;;;;5047801;28;20082;-73
2022/04/25 11:09:04;;;;;;;4.47;3.60;;;;;;;;;;5048914;28;20112;-73
2022/04/25 11:11:46;;;;;;;3.92;3.63;;;;;;;;;;5049104;28;20487;-70
2022/04/25 11:14:11;;;;;;;;;;;;;;;;;;5053217;28;20028;-71
2022/04/25 11:16:38;;;;;;;3.90;3.60;;;;;;;;;;5047904;28;19916;-70
2022/04/25 11:19:19;;;;;;;4.68;3.65;;;;;;;;;;5048984;28;20025;-69
2022/04/25 11:21:49;;;;;;;4.00;3.70;;;;;;;;;;5047603;28;20032;-70
2022/04/25 11:24:38;;;;;;;6.32;3.50;;;;;;;;;;5048432;28;20250;-70
2022/04/25 11:27:05;;;;;;;5.90;5.32;;;;;;;;;;5048694;28;20120;-71
2022/04/25 11:29:30;;;;;;;4.65;3.33;;;;;;;;;;5044362;28;20099;-69
2022/04/25 11:32:14;;;;;;;10.48;8.48;;;;;;;;;;5045819;28;20554;-70
2022/04/25 11:34:39;;;;;;;3.70;3.28;;;;;;;;;;5047624;28;20423;-70
2022/04/25 11:37:09;;;;;;;3.70;3.17;;;;;;;;;;5048759;28;20059;-69
2022/04/25 11:39:52;;;;;;;6.65;3.67;;;;;;;;;;5046483;28;20078;-75
2022/04/25 11:42:18;;;;;;;9.13;6.38;;;;;;;;;;5048118;28;20021;-73
2022/04/25 11:44:44;;;;;;;7.97;5.65;;;;;;;;;;5048039;28;20031;-72
2022/04/25 11:47:10;;;;;;;6.88;5.70;;;;;;;;;;5052558;28;20475;-73
2022/04/25 11:49:37;;;;;;;5.75;5.03;;;;;;;;;;5046677;28;20043;-72
2022/04/25 11:52:03;;;;;;;7.15;5.68;;;;;;;;;;5041583;28;20028;-73
2022/04/25 11:54:34;;;;;;;6.25;5.00;;;;;;;;;;5046445;28;20059;-72
2022/04/25 11:57:01;;;;;;;4.97;4.38;;;;;;;;;;5047721;28;20087;-72
2022/04/25 11:59:26;;;;;;;4.72;4.30;;;;;;;;;;5047237;28;20028;-73
2022/04/25 12:01:52;;;;;;;4.67;4.00;;;;;;;;;;5046604;28;20025;-71
2022/04/25 12:04:33;;;;;;;4.22;3.83;;;;;;;;;;5046587;28;20793;-71
2022/04/25 12:06:59;;;;;;;3.75;3.28;;;;;;;;;;5041329;28;20029;-71
2022/04/25 12:17:49;;;;;;;2.90;2.65;;;;;;;;;;5047759;28;20055;-71
2022/04/25 12:20:15;;;;;;;5.32;3.47;;;;;;;;;;5045730;28;20028;-71
2022/04/25 12:22:55;;;;;;;3.78;3.40;;;;;;;;;;5047417;28;20029;-70
2022/04/25 12:25:27;;;;;;;4.85;3.47;;;;;;;;;;5047398;28;20656;-72
2022/04/25 12:28:18;;;;;;;5.45;3.85;;;;;;;;;;5047028;28;20029;-73
2022/04/25 12:30:47;;;;;;;3.50;3.20;;;;;;;;;;5048049;28;20032;-72
2022/04/25 12:33:14;;;;;;;7.05;6.28;;;;;;;;;;5046606;28;20029;-73
2022/04/25 12:35:39;;;;;;;4.38;3.30;;;;;;;;;;5044358;28;20528;-71
2022/04/25 12:38:05;;;;;;;4.20;3.80;;;;;;;;;;5043860;28;20029;-73
2022/04/25 12:40:31;;;;;;;4.80;3.40;;;;;;;;;;5042166;28;20453;-71
2022/04/25 12:42:56;;;;;;;4.45;3.10;;;;;;;;;;5042370;28;20021;-72
2022/04/25 12:45:22;;;;;;;3.80;2.88;;;;;;;;;;5045449;28;20029;-70
2022/04/25 12:47:55;;;;;;;6.00;3.20;;;;;;;;;;5043848;28;20483;-71
2022/04/25 12:50:21;;;;;;;;;;;;;;;;;;5045918;28;20045;-71
2022/04/25 12:52:50;;;;;;;4.32;3.50;;;;;;;;;;5047607;28;19996;-71
2022/04/25 12:55:15;;;;;;;3.22;2.90;;;;;;;;;;5046063;28;20091;-72
2022/04/25 12:57:50;;;;;;;9.68;3.85;;;;;;;;;;5046518;28;20199;-72
2022/04/25 13:00:15;;;;;;;4.85;3.20;;;;;;;;;;5046921;28;20025;-73
2022/04/25 13:02:41;;;;;;;3.85;3.40;;;;;;;;;;5044868;28;20017;-71
2022/04/25 13:05:09;;;;;;;4.47;3.13;;;;;;;;;;5044109;28;20381;-71
2022/04/25 13:07:42;;;;;;;3.38;3.08;;;;;;;;;;5046381;28;20394;-71
2022/04/25 13:10:07;;;;;;;;;;;;;;;;;;5047102;28;20055;-72
2022/04/25 13:12:34;;;;;;;3.97;3.10;;;;;;;;;;5045605;28;19913;-71
2022/04/25 13:14:59;;;;;;;5.43;3.60;;;;;;;;;;5043687;28;20036;-71
2022/04/25 13:17:24;;;;;;;4.88;3.63;;;;;;;;;;5046502;28;20025;-70
2022/04/25 13:19:50;;;;;;;3.57;3.23;;;;;;;;;;5045436;28;20029;-70
2022/04/25 13:22:15;;;;;;;3.60;2.97;;;;;;;;;;5047033;28;20343;-72
2022/04/25 13:24:40;;;;;;;3.40;3.10;;;;;;;;;;5046447;28;20120;-71
2022/04/25 13:27:06;;;;;;;3.35;2.70;;;;;;;;;;5045349;28;20033;-68
2022/04/25 13:29:32;;;;;;;3.67;3.13;;;;;;;;;;5046379;28;20070;-69
2022/04/25 13:31:57;;;;;;;4.88;3.10;;;;;;;;;;5046191;28;20025;-70
2022/04/25 13:34:22;;;;;;;3.15;2.85;;;;;;;;;;5045982;28;20056;-71
2022/04/25 13:36:47;;;;;;;3.60;2.80;;;;;;;;;;5046864;28;20478;-71
2022/04/25 13:39:13;;;;;;;4.90;2.40;;;;;;;;;;5043985;28;20751;-72
2022/04/25 13:41:38;;;;;;;4.20;2.57;;;;;;;;;;5044367;28;20029;-71
2022/04/25 13:44:05;;;;;;;3.13;2.50;;;;;;;;;;5048152;28;20308;-70
2022/04/25 13:46:31;;;;;;;2.60;2.40;;;;;;;;;;5047939;28;20021;-71
2022/04/25 13:48:57;;;;;;;6.40;2.63;;;;;;;;;;5046705;28;20423;-70
2022/04/25 13:51:22;;;;;;;2.60;2.40;;;;;;;;;;5046203;28;20152;-71
2022/04/25 13:53:47;;;;;;;2.93;2.60;;;;;;;;;;5046116;28;20479;-71
2022/04/25 13:56:12;;;;;;;3.53;2.43;;;;;;;;;;5045225;28;20628;-71
2022/04/25 13:58:39;;;;;;;3.03;2.50;;;;;;;;;;5043559;28;20309;-70
2022/04/25 14:01:04;;;;;;;2.72;2.42;;;;;;;;;;5045580;28;20278;-71
2022/04/25 14:03:30;;;;;;;4.50;2.40;;;;;;;;;;5045678;28;20101;-71
2022/04/25 14:05:55;;;;;;;3.28;2.05;;;;;;;;;;5045866;28;20024;-75
2022/04/25 14:08:21;;;;;;;4.38;2.08;;;;;;;;;;5045941;28;20017;-70
2022/04/25 14:10:46;;;;;;;5.38;2.60;;;;;;;;;;5045440;28;20491;-71
2022/04/25 14:13:12;;;;;;;3.38;2.38;;;;;;;;;;5045114;28;20029;-73
2022/04/25 14:15:39;;;;;;;2.92;2.42;;;;;;;;;;5045338;28;20474;-71
2022/04/25 14:18:04;;;;;;;3.83;2.40;;;;;;;;;;5044746;28;20017;-71
2022/04/25 14:20:33;;;;;;;2.50;2.30;;;;;;;;;;5044643;28;20040;-73
2022/04/25 14:22:59;;;;;;;2.60;2.40;;;;;;;;;;5044813;28;20029;-71
2022/04/25 14:25:26;;;;;;;3.97;2.25;;;;;;;;;;5044327;28;20515;-71
2022/04/25 14:27:51;;;;;;;2.60;2.40;;;;;;;;;;5045840;28;20109;-70
2022/04/25 14:30:16;;;;;;;5.10;2.55;;;;;;;;;;5048035;28;20119;-71
2022/04/25 14:32:41;;;;;;;2.40;2.10;;;;;;;;;;5048946;28;20110;-70
2022/04/25 14:35:07;;;;;;;2.45;2.25;;;;;;;;;;5046371;28;20323;-71
2022/04/25 14:37:32;;;;;;;2.60;2.40;;;;;;;;;;5048864;28;20017;-71
2022/04/25 14:39:57;;;;;;;2.93;2.50;;;;;;;;;;5050041;28;20036;-70
2022/04/25 14:42:23;;;;;;;3.83;2.10;;;;;;;;;;5050139;28;20273;-71
2022/04/25 14:44:48;;;;;;;3.43;2.27;;;;;;;;;;5049254;28;20536;-71
2022/04/25 14:47:13;;;;;;;2.97;2.40;;;;;;;;;;5069770;23;20310;-69
2022/04/25 14:55:07;;;;;;;2.75;2.55;;;;;;;;;;5049928;28;20044;-70
2022/04/25 14:57:32;;;;;;;3.10;2.38;;;;;;;;;;5048433;28;20498;-70
2022/04/25 14:59:57;;;;;;;2.85;2.20;;;;;;;;;;5047951;28;20017;-71
2022/04/25 15:02:22;;;;;;;2.80;2.53;;;;;;;;;;5050808;28;20096;-70
2022/04/25 15:04:48;;;;;;;2.80;2.47;;;;;;;;;;5050333;28;20029;-70
2022/04/25 15:07:13;;;;;;;2.60;2.40;;;;;;;;;;5048432;28;20360;-70
2022/04/25 15:09:39;;;;;;;3.20;2.30;;;;;;;;;;5052277;28;20346;-70
2022/04/25 15:12:04;;;;;;;3.28;2.42;;;;;;;;;;5052710;28;20028;-71
2022/04/25 15:14:30;;;;;;;4.35;2.50;;;;;;;;;;5053044;28;20032;-70